SPFZK OMAD-OMDB
Flight info
| Callsign | SPFZK |
|---|---|
| Flight time | 0h 42m |
| Altitude | 7000 |
| Route | LORID |
| Aircraft | DA50/L-SBDGRY/S |
Departure
| Time | 2026-05-04 13:22 |
|---|---|
| Airport | Al Bateen Executive Airport (OMAD) |
Arrival
| Time | 2026-05-04 14:04 |
|---|---|
| Airport | Dubai International Airport (OMDB) |
| Time | Latitude | Longitude | Altitude | Speed | Heading |
|---|---|---|---|---|---|
| 2026-05-04 13:05 | 24.43037 | 54.45109 | 14 ft | 0 kts | 307° |
| 2026-05-04 13:19 | 24.43037 | 54.45108 | 15 ft | 3 kts | 307° |
| 2026-05-04 13:19 | 24.43068 | 54.45113 | 15 ft | 5 kts | 33° |
| 2026-05-04 13:20 | 24.43089 | 54.45148 | 15 ft | 7 kts | 125° |
| 2026-05-04 13:20 | 24.43049 | 54.45202 | 15 ft | 11 kts | 123° |
| 2026-05-04 13:20 | 24.43051 | 54.45264 | 15 ft | 5 kts | 33° |
| 2026-05-04 13:20 | 24.43075 | 54.45283 | 15 ft | 3 kts | 39° |
| 2026-05-04 13:21 | 24.43096 | 54.45302 | 16 ft | 9 kts | 39° |
| 2026-05-04 13:21 | 24.43169 | 54.45346 | 17 ft | 11 kts | 340° |
| 2026-05-04 13:21 | 24.43186 | 54.45331 | 17 ft | 0 kts | 307° |
| 2026-05-04 13:21 | 24.43294 | 54.45180 | 16 ft | 53 kts | 308° |
| 2026-05-04 13:22 | 24.43578 | 54.44782 | 90 ft | 75 kts | 309° |
| 2026-05-04 13:22 | 24.43902 | 54.44309 | 336 ft | 80 kts | 306° |
| 2026-05-04 13:22 | 24.44199 | 54.43822 | 742 ft | 75 kts | 294° |
| 2026-05-04 13:22 | 24.44485 | 54.43219 | 814 ft | 102 kts | 298° |
| 2026-05-04 13:23 | 24.44837 | 54.42494 | 983 ft | 112 kts | 298° |
| 2026-05-04 13:23 | 24.45209 | 54.41711 | 1135 ft | 118 kts | 297° |
| 2026-05-04 13:23 | 24.45673 | 54.40962 | 1265 ft | 122 kts | 323° |
| 2026-05-04 13:23 | 24.46480 | 54.40663 | 1398 ft | 127 kts | 353° |
| 2026-05-04 13:24 | 24.47365 | 54.40872 | 1588 ft | 132 kts | 12° |
| 2026-05-04 13:24 | 24.48240 | 54.41155 | 1828 ft | 129 kts | 11° |
| 2026-05-04 13:24 | 24.49092 | 54.41425 | 2086 ft | 127 kts | 12° |
| 2026-05-04 13:25 | 24.50773 | 54.41952 | 2475 ft | 124 kts | 12° |
| 2026-05-04 13:25 | 24.51593 | 54.42207 | 2661 ft | 124 kts | 13° |
| 2026-05-04 13:25 | 24.52423 | 54.42466 | 2878 ft | 124 kts | 13° |
| 2026-05-04 13:25 | 24.53250 | 54.42726 | 3131 ft | 124 kts | 13° |
| 2026-05-04 13:26 | 24.54079 | 54.42985 | 3370 ft | 123 kts | 12° |
| 2026-05-04 13:26 | 24.54901 | 54.43242 | 3584 ft | 122 kts | 12° |
| 2026-05-04 13:26 | 24.55720 | 54.43499 | 3761 ft | 122 kts | 12° |
| 2026-05-04 13:26 | 24.56535 | 54.43754 | 3974 ft | 121 kts | 12° |
| 2026-05-04 13:27 | 24.57343 | 54.44007 | 4177 ft | 120 kts | 11° |
| 2026-05-04 13:27 | 24.58144 | 54.44258 | 4379 ft | 120 kts | 11° |
| 2026-05-04 13:27 | 24.58944 | 54.44508 | 4578 ft | 119 kts | 11° |
| 2026-05-04 13:27 | 24.59730 | 54.44755 | 4764 ft | 119 kts | 10° |
| 2026-05-04 13:28 | 24.60525 | 54.45004 | 4962 ft | 118 kts | 10° |
| 2026-05-04 13:28 | 24.61319 | 54.45252 | 5156 ft | 119 kts | 9° |
| 2026-05-04 13:28 | 24.62114 | 54.45501 | 5356 ft | 119 kts | 9° |
| 2026-05-04 13:28 | 24.62907 | 54.45750 | 5554 ft | 118 kts | 9° |
| 2026-05-04 13:29 | 24.63694 | 54.45997 | 5756 ft | 117 kts | 8° |
| 2026-05-04 13:29 | 24.64476 | 54.46242 | 5953 ft | 116 kts | 8° |
| 2026-05-04 13:29 | 24.65254 | 54.46486 | 6149 ft | 116 kts | 7° |
| 2026-05-04 13:29 | 24.66032 | 54.46729 | 6336 ft | 116 kts | 7° |
| 2026-05-04 13:30 | 24.66802 | 54.46970 | 6517 ft | 117 kts | 7° |
| 2026-05-04 13:30 | 24.67583 | 54.47215 | 6704 ft | 117 kts | 7° |
| 2026-05-04 13:30 | 24.68364 | 54.47460 | 6893 ft | 117 kts | 7° |
| 2026-05-04 13:30 | 24.69162 | 54.47709 | 6992 ft | 125 kts | 7° |
| 2026-05-04 13:31 | 24.70035 | 54.47981 | 6992 ft | 135 kts | 8° |
| 2026-05-04 13:31 | 24.70959 | 54.48272 | 6996 ft | 141 kts | 8° |
| 2026-05-04 13:31 | 24.71913 | 54.48573 | 6998 ft | 144 kts | 9° |
| 2026-05-04 13:31 | 24.72886 | 54.48879 | 6998 ft | 146 kts | 9° |
| 2026-05-04 13:32 | 24.73868 | 54.49188 | 6992 ft | 147 kts | 9° |
| 2026-05-04 13:32 | 24.74840 | 54.49493 | 6998 ft | 148 kts | 8° |
| 2026-05-04 13:32 | 24.75829 | 54.49804 | 6998 ft | 148 kts | 8° |
| 2026-05-04 13:32 | 24.76821 | 54.50115 | 7005 ft | 149 kts | 9° |
| 2026-05-04 13:33 | 24.77820 | 54.50429 | 7004 ft | 150 kts | 9° |
| 2026-05-04 13:33 | 24.78815 | 54.50760 | 7007 ft | 152 kts | 15° |
| 2026-05-04 13:33 | 24.79656 | 54.51324 | 7006 ft | 151 kts | 31° |
| 2026-05-04 13:33 | 24.80174 | 54.51849 | 7008 ft | 154 kts | 35° |
| 2026-05-04 13:34 | 24.80774 | 54.52468 | 7003 ft | 152 kts | 34° |
| 2026-05-04 13:34 | 24.81558 | 54.53265 | 7002 ft | 155 kts | 34° |
| 2026-05-04 13:34 | 24.82173 | 54.53895 | 7002 ft | 151 kts | 35° |
| 2026-05-04 13:34 | 24.82682 | 54.54421 | 7003 ft | 141 kts | 34° |
| 2026-05-04 13:35 | 24.83401 | 54.55148 | 7001 ft | 146 kts | 33° |
| 2026-05-04 13:35 | 24.84943 | 54.56724 | 7000 ft | 155 kts | 34° |
| 2026-05-04 13:35 | 24.85736 | 54.57539 | 7004 ft | 157 kts | 35° |
| 2026-05-04 13:36 | 24.86537 | 54.58360 | 7006 ft | 158 kts | 35° |
| 2026-05-04 13:36 | 24.87342 | 54.59186 | 7003 ft | 158 kts | 35° |
| 2026-05-04 13:36 | 24.88147 | 54.60010 | 7003 ft | 158 kts | 35° |
| 2026-05-04 13:36 | 24.88954 | 54.60837 | 7006 ft | 158 kts | 35° |
| 2026-05-04 13:37 | 24.89760 | 54.61663 | 7003 ft | 158 kts | 35° |
| 2026-05-04 13:37 | 24.90566 | 54.62489 | 7002 ft | 158 kts | 35° |
| 2026-05-04 13:37 | 24.91344 | 54.63286 | 7004 ft | 158 kts | 35° |
| 2026-05-04 13:37 | 24.91815 | 54.63773 | 6998 ft | 153 kts | 35° |
| 2026-05-04 13:38 | 24.92777 | 54.64764 | 6994 ft | 136 kts | 34° |
| 2026-05-04 13:38 | 24.93473 | 54.65398 | 6994 ft | 124 kts | 25° |
| 2026-05-04 13:38 | 24.94163 | 54.65928 | 6992 ft | 118 kts | 25° |
| 2026-05-04 13:38 | 24.94825 | 54.66444 | 6991 ft | 114 kts | 25° |
| 2026-05-04 13:39 | 24.95465 | 54.66943 | 6993 ft | 112 kts | 25° |
| 2026-05-04 13:39 | 24.96095 | 54.67434 | 6992 ft | 110 kts | 25° |
| 2026-05-04 13:39 | 24.96718 | 54.67920 | 6992 ft | 109 kts | 25° |
| 2026-05-04 13:39 | 24.97397 | 54.68439 | 6999 ft | 128 kts | 26° |
| 2026-05-04 13:40 | 24.98153 | 54.69030 | 7002 ft | 141 kts | 27° |
| 2026-05-04 13:40 | 24.98968 | 54.69672 | 7001 ft | 147 kts | 27° |
| 2026-05-04 13:40 | 24.99812 | 54.70336 | 7003 ft | 151 kts | 27° |
| 2026-05-04 13:40 | 25.00674 | 54.71012 | 7005 ft | 153 kts | 28° |
| 2026-05-04 13:41 | 25.01546 | 54.71695 | 7006 ft | 155 kts | 28° |
| 2026-05-04 13:41 | 25.02266 | 54.72609 | 7006 ft | 168 kts | 59° |
| 2026-05-04 13:41 | 25.02505 | 54.73903 | 7006 ft | 175 kts | 75° |
| 2026-05-04 13:42 | 25.02810 | 54.76559 | 6998 ft | 174 kts | 76° |
| 2026-05-04 13:42 | 25.02969 | 54.77875 | 7000 ft | 173 kts | 76° |
| 2026-05-04 13:42 | 25.03129 | 54.79182 | 6999 ft | 172 kts | 76° |
| 2026-05-04 13:42 | 25.03286 | 54.80469 | 7001 ft | 171 kts | 76° |
| 2026-05-04 13:43 | 25.03444 | 54.81774 | 7002 ft | 172 kts | 76° |
| 2026-05-04 13:43 | 25.03602 | 54.83082 | 7004 ft | 172 kts | 76° |
| 2026-05-04 13:43 | 25.03681 | 54.83738 | 7005 ft | 172 kts | 76° |
| 2026-05-04 13:44 | 25.03836 | 54.84996 | 7007 ft | 171 kts | 76° |
| 2026-05-04 13:44 | 25.03992 | 54.86298 | 7006 ft | 171 kts | 76° |
| 2026-05-04 13:44 | 25.04146 | 54.87581 | 7007 ft | 171 kts | 76° |
| 2026-05-04 13:45 | 25.04304 | 54.88884 | 7011 ft | 172 kts | 76° |
| 2026-05-04 13:45 | 25.04461 | 54.90189 | 7012 ft | 172 kts | 76° |
| 2026-05-04 13:45 | 25.04618 | 54.91495 | 7013 ft | 172 kts | 76° |
| 2026-05-04 13:45 | 25.04776 | 54.92801 | 7015 ft | 172 kts | 76° |
| 2026-05-04 13:46 | 25.04933 | 54.94110 | 7015 ft | 172 kts | 76° |
| 2026-05-04 13:46 | 25.05090 | 54.95419 | 7017 ft | 172 kts | 76° |
| 2026-05-04 13:46 | 25.05248 | 54.96727 | 7015 ft | 172 kts | 76° |
| 2026-05-04 13:46 | 25.05405 | 54.98040 | 7016 ft | 173 kts | 76° |
| 2026-05-04 13:47 | 25.05561 | 54.99335 | 7012 ft | 172 kts | 76° |
| 2026-05-04 13:47 | 25.05717 | 55.00644 | 7013 ft | 172 kts | 76° |
| 2026-05-04 13:47 | 25.05874 | 55.01952 | 7023 ft | 172 kts | 77° |
| 2026-05-04 13:47 | 25.06030 | 55.03258 | 7024 ft | 172 kts | 77° |
| 2026-05-04 13:48 | 25.06186 | 55.04561 | 7022 ft | 171 kts | 76° |
| 2026-05-04 13:48 | 25.06342 | 55.05861 | 7022 ft | 170 kts | 76° |
| 2026-05-04 13:48 | 25.06496 | 55.07152 | 7023 ft | 170 kts | 77° |
| 2026-05-04 13:48 | 25.06650 | 55.08446 | 7024 ft | 170 kts | 77° |
| 2026-05-04 13:49 | 25.06805 | 55.09739 | 7026 ft | 170 kts | 77° |
| 2026-05-04 13:49 | 25.06957 | 55.11015 | 7023 ft | 170 kts | 77° |
| 2026-05-04 13:49 | 25.07111 | 55.12315 | 7027 ft | 171 kts | 77° |
| 2026-05-04 13:49 | 25.07267 | 55.13620 | 7028 ft | 172 kts | 77° |
| 2026-05-04 13:50 | 25.07422 | 55.14927 | 7026 ft | 172 kts | 77° |
| 2026-05-04 13:50 | 25.07579 | 55.16239 | 7026 ft | 173 kts | 77° |
| 2026-05-04 13:50 | 25.07734 | 55.17551 | 7026 ft | 172 kts | 77° |
| 2026-05-04 13:50 | 25.07888 | 55.18857 | 7025 ft | 171 kts | 77° |
| 2026-05-04 13:51 | 25.08042 | 55.20155 | 7038 ft | 170 kts | 77° |
| 2026-05-04 13:51 | 25.08196 | 55.21454 | 7038 ft | 171 kts | 77° |
| 2026-05-04 13:51 | 25.08348 | 55.22736 | 7037 ft | 171 kts | 77° |
| 2026-05-04 13:51 | 25.08501 | 55.24033 | 7037 ft | 171 kts | 77° |
| 2026-05-04 13:52 | 25.08809 | 55.26633 | 7044 ft | 171 kts | 77° |
| 2026-05-04 13:52 | 25.08964 | 55.27950 | 6890 ft | 174 kts | 78° |
| 2026-05-04 13:52 | 25.09120 | 55.29283 | 6684 ft | 176 kts | 78° |
| 2026-05-04 13:53 | 25.09279 | 55.30624 | 6477 ft | 177 kts | 78° |
| 2026-05-04 13:53 | 25.09437 | 55.31969 | 6237 ft | 176 kts | 78° |
| 2026-05-04 13:53 | 25.09593 | 55.33290 | 6030 ft | 176 kts | 78° |
| 2026-05-04 13:54 | 25.09921 | 55.36069 | 5552 ft | 187 kts | 79° |
| 2026-05-04 13:54 | 25.10087 | 55.37503 | 5307 ft | 189 kts | 79° |
| 2026-05-04 13:54 | 25.10425 | 55.40381 | 4836 ft | 189 kts | 79° |
| 2026-05-04 13:55 | 25.10595 | 55.41824 | 4606 ft | 190 kts | 79° |
| 2026-05-04 13:55 | 25.10930 | 55.44713 | 4122 ft | 189 kts | 78° |
| 2026-05-04 13:55 | 25.11064 | 55.46001 | 3914 ft | 190 kts | 83° |
| 2026-05-04 13:56 | 25.10850 | 55.47447 | 3672 ft | 194 kts | 107° |
| 2026-05-04 13:56 | 25.10210 | 55.48764 | 3432 ft | 194 kts | 118° |
| 2026-05-04 13:56 | 25.10598 | 55.51391 | 2959 ft | 181 kts | 38° |
| 2026-05-04 13:57 | 25.11582 | 55.52250 | 2719 ft | 180 kts | 34° |
| 2026-05-04 13:57 | 25.12598 | 55.53072 | 2486 ft | 182 kts | 31° |
| 2026-05-04 13:58 | 25.15702 | 55.54221 | 1995 ft | 124 kts | 316° |
| 2026-05-04 13:58 | 25.16644 | 55.52753 | 1999 ft | 116 kts | 296° |
| 2026-05-04 13:58 | 25.16970 | 55.51950 | 1996 ft | 114 kts | 294° |
| 2026-05-04 13:59 | 25.17275 | 55.51154 | 1990 ft | 111 kts | 281° |
| 2026-05-04 13:59 | 25.17509 | 55.50372 | 2004 ft | 111 kts | 308° |
| 2026-05-04 13:59 | 25.18339 | 55.48930 | 1952 ft | 115 kts | 298° |
| 2026-05-04 14:00 | 25.18745 | 55.48128 | 1845 ft | 122 kts | 300° |
| 2026-05-04 14:00 | 25.19580 | 55.46536 | 1401 ft | 116 kts | 299° |
| 2026-05-04 14:00 | 25.19967 | 55.45850 | 1238 ft | 98 kts | 301° |
| 2026-05-04 14:01 | 25.20333 | 55.45254 | 1096 ft | 91 kts | 301° |
| 2026-05-04 14:01 | 25.20691 | 55.44667 | 1046 ft | 94 kts | 299° |
| 2026-05-04 14:01 | 25.21606 | 55.43475 | 1061 ft | 102 kts | 309° |
| 2026-05-04 14:02 | 25.22061 | 55.42905 | 1017 ft | 96 kts | 305° |
| 2026-05-04 14:02 | 25.22387 | 55.42356 | 981 ft | 80 kts | 299° |
| 2026-05-04 14:02 | 25.22633 | 55.41813 | 918 ft | 82 kts | 297° |
| 2026-05-04 14:02 | 25.22945 | 55.41282 | 846 ft | 79 kts | 302° |
| 2026-05-04 14:03 | 25.23257 | 55.40779 | 748 ft | 79 kts | 300° |
| 2026-05-04 14:03 | 25.23531 | 55.40246 | 578 ft | 77 kts | 304° |
| 2026-05-04 14:03 | 25.23818 | 55.39762 | 419 ft | 73 kts | 303° |
| 2026-05-04 14:03 | 25.24081 | 55.39318 | 324 ft | 67 kts | 303° |
| 2026-05-04 14:04 | 25.24598 | 55.38396 | 147 ft | 76 kts | 298° |
| 2026-05-04 14:04 | 25.24882 | 55.37884 | 37 ft | 78 kts | 298° |
| 2026-05-04 14:04 | 25.25095 | 55.37501 | 22 ft | 47 kts | 301° |
| 2026-05-04 14:05 | 25.25311 | 55.37318 | 20 ft | 11 kts | 34° |
| 2026-05-04 14:05 | 25.25331 | 55.37332 | 19 ft | 0 kts | 24° |
| 2026-05-04 14:05 | 25.25351 | 55.37344 | 19 ft | 13 kts | 32° |
| 2026-05-04 14:06 | 25.25443 | 55.37392 | 17 ft | 13 kts | 344° |
| 2026-05-04 14:06 | 25.25498 | 55.37348 | 17 ft | 7 kts | 17° |
| 2026-05-04 14:06 | 25.25548 | 55.37377 | 16 ft | 9 kts | 28° |
| 2026-05-04 14:06 | 25.25603 | 55.37415 | 16 ft | 10 kts | 29° |
| 2026-05-04 14:07 | 25.25607 | 55.37469 | 16 ft | 8 kts | 122° |
| 2026-05-04 14:07 | 25.25594 | 55.37491 | 16 ft | 2 kts | 120° |
| 2026-05-04 14:07 | 25.25592 | 55.37495 | 16 ft | 0 kts | 122° |